Time,TemperatureF,DewpointF,PressureIn,WindDirection,WindDirectionDegrees,WindSpeedMPH,WindSpeedGustMPH,Humidity,HourlyPrecipIn,Conditions,Clouds,dailyrainin,SoftwareType,DateUTC
2013-02-08 00:00:00,19.6,2.6,28.38,ESE,112,12.3,14.8,47,0.00,,---,0.00,VWS V14.01,2013-02-08 05:00:00,
2013-02-08 00:05:00,19.8,3.3,28.38,SSE,158,12.8,12.8,48,0.00,,---,0.00,VWS V14.01,2013-02-08 05:05:00,
2013-02-08 00:10:00,19.8,3.3,28.38,SE,135,9.4,14.8,48,0.00,,---,0.00,VWS V14.01,2013-02-08 05:10:00,
2013-02-08 00:15:00,19.8,3.7,28.38,SE,135,13.0,13.0,49,0.00,,---,0.00,VWS V14.01,2013-02-08 05:15:00,
2013-02-08 00:20:00,19.9,4.3,28.38,SE,135,12.8,12.8,50,0.00,,---,0.00,VWS V14.01,2013-02-08 05:20:00,
2013-02-08 00:25:00,20.1,4.9,28.38,ESE,112,12.8,12.8,51,0.00,,---,0.00,VWS V14.01,2013-02-08 05:25:00,
2013-02-08 00:30:00,20.3,5.5,28.38,SSE,158,12.3,13.2,52,0.00,,---,0.00,VWS V14.01,2013-02-08 05:30:00,
2013-02-08 00:35:00,20.3,5.5,28.35,SE,135,12.8,12.8,52,0.00,,---,0.00,VWS V14.01,2013-02-08 05:35:00,
2013-02-08 00:40:00,20.5,5.7,28.35,SE,135,11.9,13.4,52,0.00,,---,0.00,VWS V14.01,2013-02-08 05:40:00,
2013-02-08 00:45:00,20.7,6.2,28.35,SSE,158,12.8,15.2,53,0.00,,---,0.00,VWS V14.01,2013-02-08 05:45:00,
2013-02-08 00:50:00,20.7,6.2,28.32,SE,135,12.5,15.4,53,0.00,,---,0.00,VWS V14.01,2013-02-08 05:50:00,
2013-02-08 00:55:00,20.8,6.4,28.32,ESE,112,7.6,12.5,53,0.00,,---,0.00,VWS V14.01,2013-02-08 05:55:00,
2013-02-08 01:00:00,20.8,6.4,28.32,ESE,112,12.8,12.8,53,0.00,,---,0.00,VWS V14.01,2013-02-08 06:00:00,
2013-02-08 01:05:00,21.0,6.6,28.29,SSE,158,18.1,18.1,53,0.00,,---,0.00,VWS V14.01,2013-02-08 06:05:00,
2013-02-08 01:10:00,21.0,6.6,28.29,SSE,158,7.6,13.2,53,0.00,,---,0.00,VWS V14.01,2013-02-08 06:10:00,
2013-02-08 01:15:00,21.0,7.0,28.29,ESE,112,15.2,15.2,54,0.00,,---,0.00,VWS V14.01,2013-02-08 06:15:00,
2013-02-08 01:20:00,21.0,7.0,28.32,East,90,13.0,13.0,54,0.00,,---,0.00,VWS V14.01,2013-02-08 06:20:00,
2013-02-08 01:25:00,21.0,7.0,28.32,SE,135,15.4,19.7,54,0.00,,---,0.00,VWS V14.01,2013-02-08 06:25:00,
2013-02-08 01:30:00,21.0,7.4,28.32,SE,135,13.9,14.5,55,0.00,,---,0.00,VWS V14.01,2013-02-08 06:30:00,
2013-02-08 01:35:00,21.0,7.4,28.32,ESE,112,16.6,16.6,55,0.00,,---,0.00,VWS V14.01,2013-02-08 06:35:00,
2013-02-08 01:40:00,21.0,7.4,28.32,SE,135,8.7,12.8,55,0.00,,---,0.00,VWS V14.01,2013-02-08 06:40:00,
2013-02-08 01:45:00,21.0,7.8,28.32,SE,135,12.8,15.4,56,0.00,,---,0.00,VWS V14.01,2013-02-08 06:45:00,
2013-02-08 01:50:00,21.0,8.2,28.32,ESE,112,14.5,14.5,57,0.00,,---,0.00,VWS V14.01,2013-02-08 06:50:00,
2013-02-08 01:55:00,21.0,8.6,28.32,SE,135,15.2,15.4,58,0.00,,---,0.00,VWS V14.01,2013-02-08 06:55:00,
2013-02-08 02:00:00,20.8,8.0,28.32,ESE,112,20.1,20.1,57,0.00,,---,0.00,VWS V14.01,2013-02-08 07:00:00,
2013-02-08 02:05:00,21.0,8.6,28.32,ESE,112,13.9,18.8,58,0.00,,---,0.00,VWS V14.01,2013-02-08 07:05:00,
2013-02-08 02:09:00,20.8,8.4,28.32,ESE,112,17.7,17.7,58,0.00,,---,0.00,VWS V14.01,2013-02-08 07:09:00,
2013-02-08 02:14:00,21.0,8.6,28.32,ESE,112,20.1,20.1,58,0.00,,---,0.00,VWS V14.01,2013-02-08 07:14:00,
2013-02-08 02:19:00,21.0,8.9,28.32,ESE,112,12.5,14.5,59,0.00,,---,0.00,VWS V14.01,2013-02-08 07:19:00,
2013-02-08 02:24:00,21.0,9.7,28.32,ESE,112,17.9,21.9,61,0.00,,---,0.00,VWS V14.01,2013-02-08 07:24:00,
2013-02-08 02:29:00,21.2,9.9,28.32,ESE,112,19.9,19.9,61,0.00,,---,0.00,VWS V14.01,2013-02-08 07:29:00,
2013-02-08 02:34:00,21.2,10.2,28.29,SSE,158,15.4,23.0,62,0.00,,---,0.00,VWS V14.01,2013-02-08 07:34:00,
2013-02-08 02:39:00,21.2,9.9,28.29,SE,135,15.2,15.2,61,0.00,,---,0.00,VWS V14.01,2013-02-08 07:39:00,
2013-02-08 02:44:00,21.2,10.2,28.29,ESE,112,14.5,19.7,62,0.00,,---,0.00,VWS V14.01,2013-02-08 07:44:00,
2013-02-08 02:49:00,21.2,10.2,28.29,SSE,158,15.2,17.2,62,0.00,,---,0.00,VWS V14.01,2013-02-08 07:49:00,
2013-02-08 02:54:00,21.2,10.2,28.29,ESE,112,13.2,14.1,62,0.00,,---,0.00,VWS V14.01,2013-02-08 07:54:00,
2013-02-08 02:59:00,21.4,10.8,28.29,SE,135,15.2,19.9,63,0.00,,---,0.00,VWS V14.01,2013-02-08 07:59:00,
2013-02-08 03:04:00,21.4,10.8,28.26,ESE,112,16.8,28.4,63,0.00,,---,0.00,VWS V14.01,2013-02-08 08:04:00,
2013-02-08 03:09:00,21.4,10.8,28.26,ESE,112,13.0,24.4,63,0.00,,---,0.00,VWS V14.01,2013-02-08 08:09:00,
2013-02-08 03:14:00,21.4,10.8,28.26,ESE,112,15.2,19.5,63,0.00,,---,0.00,VWS V14.01,2013-02-08 08:14:00,
2013-02-08 03:19:00,21.4,10.8,28.26,SE,135,15.2,15.2,63,0.00,,---,0.00,VWS V14.01,2013-02-08 08:19:00,
2013-02-08 03:24:00,21.4,10.8,28.26,ESE,112,13.2,19.5,63,0.00,,---,0.00,VWS V14.01,2013-02-08 08:24:00,
2013-02-08 03:29:00,21.6,11.3,28.26,SSE,158,12.5,17.2,64,0.00,,---,0.00,VWS V14.01,2013-02-08 08:29:00,
2013-02-08 03:34:00,21.4,11.1,28.26,SSE,158,13.2,13.2,64,0.00,,---,0.00,VWS V14.01,2013-02-08 08:34:00,
2013-02-08 03:39:00,21.4,11.1,28.26,ESE,112,12.3,14.5,64,0.00,,---,0.00,VWS V14.01,2013-02-08 08:39:00,
2013-02-08 03:44:00,21.4,11.1,28.26,SE,135,12.1,12.8,64,0.00,,---,0.00,VWS V14.01,2013-02-08 08:44:00,
2013-02-08 03:49:00,21.4,11.1,28.26,SE,135,19.7,21.3,64,0.00,,---,0.00,VWS V14.01,2013-02-08 08:49:00,
2013-02-08 03:54:00,21.2,10.9,28.26,SE,135,11.0,11.0,64,0.00,,---,0.00,VWS V14.01,2013-02-08 08:54:00,
2013-02-08 03:59:00,21.2,11.3,28.26,ESE,112,10.1,10.5,65,0.00,,---,0.00,VWS V14.01,2013-02-08 08:59:00,
2013-02-08 04:04:00,21.2,11.3,28.29,ESE,112,12.5,24.4,65,0.00,,---,0.00,VWS V14.01,2013-02-08 09:04:00,
2013-02-08 04:09:00,21.4,11.5,28.29,SE,135,17.5,17.5,65,0.00,,---,0.00,VWS V14.01,2013-02-08 09:09:00,
2013-02-08 04:14:00,21.4,11.8,28.29,ESE,112,22.8,25.5,66,0.00,,---,0.00,VWS V14.01,2013-02-08 09:14:00,
2013-02-08 04:19:00,21.4,11.8,28.26,ESE,112,13.2,25.3,66,0.00,,---,0.00,VWS V14.01,2013-02-08 09:19:00,
2013-02-08 04:24:00,21.4,11.8,28.26,East,90,15.2,22.8,66,0.00,,---,0.00,VWS V14.01,2013-02-08 09:24:00,
2013-02-08 04:29:00,21.4,11.8,28.26,ESE,112,12.3,16.8,66,0.00,,---,0.00,VWS V14.01,2013-02-08 09:29:00,
2013-02-08 04:34:00,21.4,11.8,28.26,SSE,158,12.3,19.5,66,0.00,,---,0.00,VWS V14.01,2013-02-08 09:34:00,
2013-02-08 04:39:00,21.4,11.8,28.26,ESE,112,19.9,23.5,66,0.00,,---,0.00,VWS V14.01,2013-02-08 09:39:00,
2013-02-08 04:44:00,21.6,11.6,28.26,SSE,158,15.4,19.5,65,0.00,,---,0.00,VWS V14.01,2013-02-08 09:44:00,
2013-02-08 04:49:00,21.6,11.3,28.26,ESE,112,19.7,19.7,64,0.00,,---,0.00,VWS V14.01,2013-02-08 09:49:00,
2013-02-08 04:54:00,21.6,10.2,28.26,ESE,112,17.5,18.8,61,0.00,,---,0.00,VWS V14.01,2013-02-08 09:54:00,
2013-02-08 04:59:00,21.6,9.8,28.26,ESE,112,24.6,24.6,60,0.00,,---,0.00,VWS V14.01,2013-02-08 09:59:00,
2013-02-08 05:04:00,21.6,9.5,28.26,ESE,112,17.0,22.8,59,0.00,,---,0.00,VWS V14.01,2013-02-08 10:04:00,
2013-02-08 05:09:00,21.7,8.9,28.26,SE,135,11.9,17.2,57,0.00,,---,0.00,VWS V14.01,2013-02-08 10:09:00,
2013-02-08 05:14:00,21.7,8.5,28.26,ESE,112,17.5,19.9,56,0.00,,---,0.00,VWS V14.01,2013-02-08 10:14:00,
2013-02-08 05:19:00,21.7,8.1,28.26,SE,135,15.4,18.6,55,0.00,,---,0.00,VWS V14.01,2013-02-08 10:19:00,
2013-02-08 05:24:00,21.7,8.1,28.23,SSE,158,26.4,26.4,55,0.00,,---,0.00,VWS V14.01,2013-02-08 10:24:00,
2013-02-08 05:29:00,21.6,7.9,28.23,SSE,158,15.2,22.2,55,0.00,,---,0.00,VWS V14.01,2013-02-08 10:29:00,
2013-02-08 05:34:00,21.6,7.9,28.23,SSE,158,19.5,19.5,55,0.00,,---,0.00,VWS V14.01,2013-02-08 10:34:00,
2013-02-08 05:39:00,21.6,7.9,28.23,SSE,158,12.5,14.8,55,0.00,,---,0.00,VWS V14.01,2013-02-08 10:39:00,
2013-02-08 05:44:00,21.6,7.9,28.23,ESE,112,17.5,24.4,55,0.00,,---,0.00,VWS V14.01,2013-02-08 10:44:00,
2013-02-08 05:49:00,21.6,7.9,28.23,ESE,112,16.8,19.9,55,0.00,,---,0.00,VWS V14.01,2013-02-08 10:49:00,
2013-02-08 05:54:00,21.4,7.7,28.26,SSE,158,19.9,26.0,55,0.00,,---,0.00,VWS V14.01,2013-02-08 10:54:00,
2013-02-08 05:59:00,21.4,8.1,28.26,SE,135,23.0,23.9,56,0.00,,---,0.00,VWS V14.01,2013-02-08 10:59:00,
2013-02-08 06:04:00,21.4,8.5,28.26,SE,135,16.3,20.1,57,0.00,,---,0.00,VWS V14.01,2013-02-08 11:04:00,
2013-02-08 06:09:00,21.2,9.1,28.23,SE,135,23.3,23.3,59,0.00,,---,0.00,VWS V14.01,2013-02-08 11:09:00,
2013-02-08 06:14:00,21.2,9.1,28.23,SE,135,14.1,23.3,59,0.00,,---,0.00,VWS V14.01,2013-02-08 11:14:00,
2013-02-08 06:19:00,21.2,9.1,28.23,ESE,112,19.0,19.0,59,0.00,,---,0.00,VWS V14.01,2013-02-08 11:19:00,
2013-02-08 06:24:00,21.4,8.9,28.23,SE,135,16.3,19.0,58,0.00,,---,0.00,VWS V14.01,2013-02-08 11:24:00,
2013-02-08 06:29:00,21.4,8.5,28.23,SE,135,12.8,14.8,57,0.00,,---,0.00,VWS V14.01,2013-02-08 11:29:00,
2013-02-08 06:34:00,21.4,8.9,28.23,SSE,158,13.2,23.0,58,0.00,,---,0.00,VWS V14.01,2013-02-08 11:34:00,
2013-02-08 06:39:00,21.4,8.9,28.23,SE,135,11.9,22.8,58,0.00,,---,0.00,VWS V14.01,2013-02-08 11:39:00,
2013-02-08 06:44:00,21.2,9.1,28.23,ESE,112,10.7,12.3,59,0.00,,---,0.00,VWS V14.01,2013-02-08 11:44:00,
2013-02-08 06:49:00,21.2,9.5,28.23,SSE,158,12.3,19.9,60,0.00,,---,0.00,VWS V14.01,2013-02-08 11:49:00,
2013-02-08 06:54:00,21.2,9.9,28.23,ESE,112,9.8,10.3,61,0.00,,---,0.00,VWS V14.01,2013-02-08 11:54:00,
2013-02-08 06:59:00,21.2,9.9,28.23,ESE,112,9.2,17.5,61,0.00,,---,0.00,VWS V14.01,2013-02-08 11:59:00,
2013-02-08 07:04:00,21.2,10.2,28.23,ESE,112,7.8,13.2,62,0.00,,---,0.00,VWS V14.01,2013-02-08 12:04:00,
2013-02-08 07:09:00,21.2,10.6,28.23,ESE,112,13.2,13.2,63,0.00,,---,0.00,VWS V14.01,2013-02-08 12:09:00,
2013-02-08 07:14:00,21.2,10.6,28.23,SSE,158,17.2,17.7,63,0.00,,---,0.00,VWS V14.01,2013-02-08 12:14:00,
2013-02-08 07:19:00,21.2,10.9,28.23,SE,135,19.7,19.9,64,0.00,,---,0.00,VWS V14.01,2013-02-08 12:19:00,
2013-02-08 07:24:00,21.2,11.3,28.17,ESE,112,12.8,19.0,65,0.00,,---,0.00,VWS V14.01,2013-02-08 12:24:00,
2013-02-08 07:29:00,21.0,11.1,28.17,ESE,112,13.2,13.2,65,0.00,,---,0.00,VWS V14.01,2013-02-08 12:29:00,
2013-02-08 07:34:00,21.0,11.5,28.17,ESE,112,12.5,15.2,66,0.00,,---,0.00,VWS V14.01,2013-02-08 12:34:00,
2013-02-08 07:39:00,21.0,11.5,28.20,ESE,112,11.9,23.0,66,0.00,,---,0.00,VWS V14.01,2013-02-08 12:39:00,
2013-02-08 07:44:00,21.0,11.5,28.20,ESE,112,12.3,19.5,66,0.00,,---,0.00,VWS V14.01,2013-02-08 12:44:00,
2013-02-08 07:49:00,21.0,11.8,28.20,ESE,112,7.6,13.2,67,0.00,,---,0.00,VWS V14.01,2013-02-08 12:49:00,
2013-02-08 07:54:00,21.0,12.1,28.20,ESE,112,15.2,17.2,68,0.00,,---,0.00,VWS V14.01,2013-02-08 12:54:00,
2013-02-08 07:59:00,21.0,12.5,28.20,ESE,112,11.0,11.0,69,0.00,,---,0.00,VWS V14.01,2013-02-08 12:59:00,
2013-02-08 08:04:00,21.0,12.8,28.20,ESE,112,13.0,16.8,70,0.00,,---,0.00,VWS V14.01,2013-02-08 13:04:00,
2013-02-08 08:09:00,21.0,13.1,28.20,SE,135,6.5,7.4,71,0.00,,---,0.00,VWS V14.01,2013-02-08 13:09:00,
2013-02-08 08:14:00,21.0,13.4,28.20,SE,135,12.8,12.8,72,0.00,,---,0.00,VWS V14.01,2013-02-08 13:14:00,
2013-02-08 08:19:00,21.0,14.1,28.20,ESE,112,14.1,14.1,74,0.00,,---,0.00,VWS V14.01,2013-02-08 13:19:00,
2013-02-08 08:24:00,21.0,14.4,28.20,SSE,158,8.1,12.1,75,0.00,,---,0.00,VWS V14.01,2013-02-08 13:24:00,
2013-02-08 08:29:00,21.0,14.9,28.20,SE,135,16.1,16.1,77,0.00,,---,0.00,VWS V14.01,2013-02-08 13:29:00,
2013-02-08 08:34:00,20.8,15.1,28.20,ESE,112,11.0,12.8,78,0.00,,---,0.00,VWS V14.01,2013-02-08 13:34:00,
2013-02-08 08:39:00,21.0,15.5,28.20,SE,135,10.1,10.1,79,0.00,,---,0.00,VWS V14.01,2013-02-08 13:39:00,
2013-02-08 08:44:00,21.0,15.8,28.20,SSE,158,13.6,15.4,80,0.00,,---,0.00,VWS V14.01,2013-02-08 13:44:00,
2013-02-08 08:49:00,21.2,16.0,28.20,ESE,112,13.2,14.8,80,0.00,,---,0.00,VWS V14.01,2013-02-08 13:49:00,
2013-02-08 08:54:00,21.4,16.2,28.17,ESE,112,16.1,19.0,80,0.00,,---,0.00,VWS V14.01,2013-02-08 13:54:00,
2013-02-08 08:59:00,21.6,16.6,28.17,ESE,112,16.1,16.1,81,0.00,,---,0.00,VWS V14.01,2013-02-08 13:59:00,
2013-02-08 09:04:00,21.9,17.0,28.17,ESE,112,14.3,14.3,81,0.00,,---,0.00,VWS V14.01,2013-02-08 14:04:00,
2013-02-08 09:09:00,21.7,16.8,28.17,SE,135,17.7,17.7,81,0.00,,---,0.00,VWS V14.01,2013-02-08 14:09:00,
2013-02-08 09:14:00,21.7,16.8,28.17,SE,135,20.4,20.4,81,0.00,,---,0.00,VWS V14.01,2013-02-08 14:14:00,
2013-02-08 09:19:00,21.7,17.1,28.17,ESE,112,18.6,18.6,82,0.00,,---,0.00,VWS V14.01,2013-02-08 14:19:00,
2013-02-08 09:24:00,21.9,17.0,28.17,ESE,112,10.7,15.2,81,0.00,,---,0.00,VWS V14.01,2013-02-08 14:24:00,
2013-02-08 09:29:00,22.1,17.5,28.17,ESE,112,15.4,15.4,82,0.00,,---,0.00,VWS V14.01,2013-02-08 14:29:00,
2013-02-08 09:34:00,22.1,17.7,28.17,ESE,112,12.8,13.0,83,0.00,,---,0.00,VWS V14.01,2013-02-08 14:34:00,
2013-02-08 09:39:00,22.1,18.3,28.17,SE,135,9.8,12.8,85,0.00,,---,0.00,VWS V14.01,2013-02-08 14:39:00,
2013-02-08 09:44:00,22.5,18.9,28.17,ESE,112,7.8,9.0,86,0.00,,---,0.00,VWS V14.01,2013-02-08 14:44:00,
2013-02-08 09:49:00,22.5,18.9,28.17,East,90,13.2,13.2,86,0.00,,---,0.00,VWS V14.01,2013-02-08 14:49:00,
2013-02-08 09:54:00,22.6,19.1,28.14,ESE,112,13.4,16.1,86,0.00,,---,0.00,VWS V14.01,2013-02-08 14:54:00,
2013-02-08 09:59:00,22.8,19.0,28.14,East,90,8.5,17.5,85,0.00,,---,0.00,VWS V14.01,2013-02-08 14:59:00,
2013-02-08 10:04:00,22.8,19.0,28.14,SE,135,16.6,16.6,85,0.00,,---,0.00,VWS V14.01,2013-02-08 15:04:00,
2013-02-08 10:09:00,22.8,18.7,28.14,SE,135,12.8,12.8,84,0.00,,---,0.00,VWS V14.01,2013-02-08 15:09:00,
2013-02-08 10:14:00,23.0,19.2,28.14,ESE,112,10.1,10.1,85,0.00,,---,0.00,VWS V14.01,2013-02-08 15:14:00,
2013-02-08 10:19:00,23.2,19.1,28.14,East,90,57.5,57.5,84,0.00,,---,0.00,VWS V14.01,2013-02-08 15:19:00,
2013-02-08 10:24:00,23.7,19.9,28.14,ESE,112,6.3,9.8,85,0.00,,---,0.00,VWS V14.01,2013-02-08 15:24:00,
2013-02-08 10:29:00,23.7,19.3,28.14,SE,135,10.1,10.1,83,0.00,,---,0.00,VWS V14.01,2013-02-08 15:29:00,
2013-02-08 10:34:00,23.5,18.9,28.14,SSE,158,10.3,10.3,82,0.00,,---,0.00,VWS V14.01,2013-02-08 15:34:00,
2013-02-08 10:39:00,23.7,19.6,28.14,ESE,112,9.8,11.0,84,0.00,,---,0.00,VWS V14.01,2013-02-08 15:39:00,
2013-02-08 10:44:00,23.7,19.3,28.14,SSE,158,7.4,10.1,83,0.00,,---,0.00,VWS V14.01,2013-02-08 15:44:00,
2013-02-08 10:49:00,23.7,19.3,28.14,SSE,158,4.9,4.9,83,0.00,,---,0.00,VWS V14.01,2013-02-08 15:49:00,
2013-02-08 10:54:00,23.7,19.6,28.14,ESE,112,5.4,5.4,84,0.00,,---,0.00,VWS V14.01,2013-02-08 15:54:00,
2013-02-08 10:59:00,24.1,20.0,28.14,SE,135,6.7,6.7,84,0.00,,---,0.00,VWS V14.01,2013-02-08 15:59:00,
2013-02-08 11:04:00,24.1,20.0,28.14,ESE,112,3.4,5.6,84,0.00,,---,0.00,VWS V14.01,2013-02-08 16:04:00,
2013-02-08 11:09:00,24.3,20.4,28.11,ESE,112,4.9,6.0,85,0.00,,---,0.00,VWS V14.01,2013-02-08 16:09:00,
2013-02-08 11:14:00,24.4,20.0,28.11,SSE,158,5.8,8.5,83,0.00,,---,0.00,VWS V14.01,2013-02-08 16:14:00,
2013-02-08 11:19:00,24.4,20.0,28.11,ESE,112,7.4,10.7,83,0.00,,---,0.00,VWS V14.01,2013-02-08 16:19:00,
2013-02-08 11:24:00,24.4,20.0,28.11,ESE,112,9.0,9.0,83,0.00,,---,0.00,VWS V14.01,2013-02-08 16:24:00,
2013-02-08 11:29:00,24.4,20.0,28.11,SSE,158,5.8,12.8,83,0.00,,---,0.00,VWS V14.01,2013-02-08 16:29:00,
2013-02-08 11:34:00,24.4,20.0,28.11,ESE,112,5.6,9.6,83,0.00,,---,0.00,VWS V14.01,2013-02-08 16:34:00,
2013-02-08 11:39:00,24.8,20.9,28.08,ESE,112,9.6,10.7,85,0.00,,---,0.00,VWS V14.01,2013-02-08 16:39:00,
2013-02-08 11:44:00,24.8,20.9,28.08,ESE,112,8.1,13.2,85,0.00,,---,0.00,VWS V14.01,2013-02-08 16:44:00,
2013-02-08 11:49:00,24.8,20.9,28.08,SE,135,10.5,14.3,85,0.00,,---,0.00,VWS V14.01,2013-02-08 16:49:00,
2013-02-08 11:54:00,25.0,21.1,28.08,SE,135,10.7,10.7,85,0.00,,---,0.00,VWS V14.01,2013-02-08 16:54:00,
2013-02-08 11:59:00,25.3,21.8,28.08,ESE,112,5.6,6.0,86,0.00,,---,0.00,VWS V14.01,2013-02-08 16:59:00,
2013-02-08 12:04:00,25.3,21.8,28.08,SE,135,13.0,14.5,86,0.00,,---,0.00,VWS V14.01,2013-02-08 17:04:00,
2013-02-08 12:09:00,25.2,20.7,28.05,ESE,112,6.3,10.1,83,0.00,,---,0.00,VWS V14.01,2013-02-08 17:09:00,
2013-02-08 12:14:00,24.8,20.7,28.05,ESE,112,8.5,9.6,84,0.00,,---,0.00,VWS V14.01,2013-02-08 17:14:00,
2013-02-08 12:19:00,24.8,21.2,28.05,SE,135,5.8,11.9,86,0.00,,---,0.00,VWS V14.01,2013-02-08 17:19:00,
2013-02-08 12:24:00,25.0,21.7,28.05,ESE,112,8.5,8.5,87,0.00,,---,0.00,VWS V14.01,2013-02-08 17:24:00,
2013-02-08 12:29:00,24.8,21.2,28.05,SE,135,5.8,12.3,86,0.00,,---,0.00,VWS V14.01,2013-02-08 17:29:00,
2013-02-08 12:34:00,24.8,21.2,28.05,SSE,158,13.6,14.1,86,0.00,,---,0.00,VWS V14.01,2013-02-08 17:34:00,
2013-02-08 12:39:00,24.8,22.3,28.02,SSE,158,12.5,12.5,90,0.00,,---,0.00,VWS V14.01,2013-02-08 17:39:00,
2013-02-08 12:44:00,24.8,22.3,28.02,ESE,112,15.2,15.2,90,0.00,,---,0.00,VWS V14.01,2013-02-08 17:44:00,
2013-02-08 12:49:00,24.8,22.0,28.02,ESE,112,6.0,8.5,89,0.00,,---,0.00,VWS V14.01,2013-02-08 17:49:00,
2013-02-08 12:54:00,25.2,21.8,28.02,ESE,112,6.0,9.6,87,0.00,,---,0.00,VWS V14.01,2013-02-08 17:54:00,
2013-02-08 12:59:00,25.2,21.6,28.02,SE,135,7.6,7.6,86,0.00,,---,0.00,VWS V14.01,2013-02-08 17:59:00,
2013-02-08 13:04:00,25.2,21.8,28.02,ESE,112,11.2,11.2,87,0.00,,---,0.00,VWS V14.01,2013-02-08 18:04:00,
2013-02-08 13:09:00,25.3,21.8,28.02,ESE,112,9.0,10.3,86,0.00,,---,0.00,VWS V14.01,2013-02-08 18:09:00,
2013-02-08 13:14:00,25.3,21.8,28.02,ESE,112,10.1,14.8,86,0.00,,---,0.00,VWS V14.01,2013-02-08 18:14:00,
2013-02-08 13:19:00,25.3,22.3,28.02,ENE,68,7.4,12.5,88,0.00,,---,0.00,VWS V14.01,2013-02-08 18:19:00,
2013-02-08 13:24:00,25.5,22.7,28.05,ENE,68,8.7,8.7,89,0.00,,---,0.00,VWS V14.01,2013-02-08 18:24:00,
2013-02-08 13:29:00,25.3,22.3,28.05,ESE,112,9.2,9.2,88,0.00,,---,0.00,VWS V14.01,2013-02-08 18:29:00,
2013-02-08 13:34:00,25.3,21.5,28.05,ESE,112,9.0,10.7,85,0.00,,---,0.00,VWS V14.01,2013-02-08 18:34:00,
2013-02-08 13:39:00,25.2,20.7,28.02,ENE,68,10.7,18.1,83,0.00,,---,0.00,VWS V14.01,2013-02-08 18:39:00,
2013-02-08 13:44:00,25.3,21.2,28.02,ESE,112,9.0,9.0,84,0.00,,---,0.00,VWS V14.01,2013-02-08 18:44:00,
2013-02-08 13:49:00,25.3,20.9,28.02,ESE,112,5.6,5.6,83,0.00,,---,0.00,VWS V14.01,2013-02-08 18:49:00,
2013-02-08 13:54:00,25.5,21.4,27.96,SE,135,6.3,8.7,84,0.00,,---,0.00,VWS V14.01,2013-02-08 18:54:00,
2013-02-08 13:59:00,25.5,21.1,27.96,ESE,112,7.8,8.7,83,0.00,,---,0.00,VWS V14.01,2013-02-08 18:59:00,
2013-02-08 14:04:00,25.3,20.9,27.96,ESE,112,15.7,15.7,83,0.00,,---,0.00,VWS V14.01,2013-02-08 19:04:00,
2013-02-08 14:09:00,25.7,21.5,27.96,ESE,112,10.3,10.3,84,0.00,,---,0.00,VWS V14.01,2013-02-08 19:09:00,
2013-02-08 14:14:00,25.7,21.3,27.96,ENE,68,7.6,11.0,83,0.00,,---,0.00,VWS V14.01,2013-02-08 19:14:00,
2013-02-08 14:19:00,25.3,21.8,27.96,ESE,112,10.5,13.0,86,0.00,,---,0.00,VWS V14.01,2013-02-08 19:19:00,
2013-02-08 14:24:00,25.3,21.8,27.96,SE,135,6.9,14.5,86,0.00,,---,0.00,VWS V14.01,2013-02-08 19:24:00,
2013-02-08 14:29:00,25.3,22.0,27.96,ESE,112,7.2,12.8,87,0.00,,---,0.00,VWS V14.01,2013-02-08 19:29:00,
2013-02-08 14:34:00,25.5,22.7,27.96,ESE,112,7.4,8.7,89,0.00,,---,0.00,VWS V14.01,2013-02-08 19:34:00,
2013-02-08 14:39:00,25.5,22.5,27.96,ESE,112,7.8,12.5,88,0.00,,---,0.00,VWS V14.01,2013-02-08 19:39:00,
2013-02-08 14:44:00,25.3,22.0,27.96,ESE,112,8.5,9.8,87,0.00,,---,0.00,VWS V14.01,2013-02-08 19:44:00,
2013-02-08 14:49:00,25.3,22.6,27.96,ESE,112,13.0,13.2,89,0.00,,---,0.00,VWS V14.01,2013-02-08 19:49:00,
2013-02-08 14:54:00,25.3,22.6,27.93,ESE,112,15.2,15.2,89,0.00,,---,0.00,VWS V14.01,2013-02-08 19:54:00,
2013-02-08 14:59:00,25.2,22.4,27.93,ESE,112,7.6,10.3,89,0.00,,---,0.00,VWS V14.01,2013-02-08 19:59:00,
2013-02-08 15:04:00,25.2,22.4,27.93,ESE,112,15.9,15.9,89,0.00,,---,0.00,VWS V14.01,2013-02-08 20:04:00,
2013-02-08 15:09:00,25.2,22.6,27.96,ESE,112,9.0,13.0,90,0.00,,---,0.00,VWS V14.01,2013-02-08 20:09:00,
2013-02-08 15:14:00,25.0,22.7,27.96,ESE,112,8.7,12.8,91,0.00,,---,0.00,VWS V14.01,2013-02-08 20:14:00,
2013-02-08 15:19:00,24.8,22.5,27.96,ESE,112,6.7,7.4,91,0.00,,---,0.00,VWS V14.01,2013-02-08 20:19:00,
2013-02-08 15:24:00,24.8,22.5,27.93,ESE,112,6.5,6.5,91,0.00,,---,0.00,VWS V14.01,2013-02-08 20:24:00,
2013-02-08 15:29:00,25.0,22.7,27.93,ESE,112,6.0,6.0,91,0.00,,---,0.00,VWS V14.01,2013-02-08 20:29:00,
2013-02-08 16:23:00,24.3,22.5,27.90,ESE,112,9.6,9.6,93,0.00,,---,0.00,VWS V14.01,2013-02-08 21:23:00,
2013-02-08 16:28:00,23.9,22.2,27.90,ESE,112,4.9,6.3,93,0.00,,---,0.00,VWS V14.01,2013-02-08 21:28:00,
2013-02-08 16:33:00,23.9,22.2,27.90,SE,135,4.0,4.0,93,0.00,,---,0.00,VWS V14.01,2013-02-08 21:33:00,
2013-02-08 16:38:00,23.9,22.4,27.90,ESE,112,4.3,9.6,94,0.00,,---,0.00,VWS V14.01,2013-02-08 21:38:00,
2013-02-08 16:43:00,23.7,22.2,27.90,ESE,112,7.6,7.6,94,0.00,,---,0.00,VWS V14.01,2013-02-08 21:43:00,
2013-02-08 16:48:00,23.5,22.1,27.90,East,90,5.8,7.6,94,0.00,,---,0.00,VWS V14.01,2013-02-08 21:48:00,
2013-02-08 16:53:00,23.5,22.1,27.90,ESE,112,7.6,9.0,94,0.00,,---,0.00,VWS V14.01,2013-02-08 21:53:00,
2013-02-08 16:58:00,23.5,22.1,27.90,East,90,2.7,3.8,94,0.00,,---,0.00,VWS V14.01,2013-02-08 21:58:00,
2013-02-08 17:03:00,23.5,22.1,27.90,East,90,5.6,7.2,94,0.00,,---,0.00,VWS V14.01,2013-02-08 22:03:00,
2013-02-08 17:08:00,23.4,21.9,27.88,ESE,112,5.6,5.6,94,0.00,,---,0.00,VWS V14.01,2013-02-08 22:08:00,
2013-02-08 17:13:00,23.4,21.9,27.88,NE,45,5.8,6.3,94,0.00,,---,0.00,VWS V14.01,2013-02-08 22:13:00,
2013-02-08 17:18:00,23.2,21.7,27.88,ESE,112,3.8,4.3,94,0.00,,---,0.00,VWS V14.01,2013-02-08 22:18:00,
2013-02-08 17:23:00,23.2,21.7,27.90,ENE,68,3.4,3.4,94,0.00,,---,0.00,VWS V14.01,2013-02-08 22:23:00,
2013-02-08 17:28:00,23.0,21.5,27.90,ENE,68,6.0,6.0,94,0.00,,---,0.00,VWS V14.01,2013-02-08 22:28:00,
2013-02-08 17:33:00,23.0,21.5,27.90,ENE,68,4.3,6.0,94,0.00,,---,0.00,VWS V14.01,2013-02-08 22:33:00,
2013-02-08 17:38:00,22.8,21.4,27.90,ENE,68,3.4,8.1,94,0.00,,---,0.00,VWS V14.01,2013-02-08 22:38:00,
2013-02-08 17:43:00,22.8,21.6,27.90,ENE,68,4.9,5.4,95,0.00,,---,0.00,VWS V14.01,2013-02-08 22:43:00,
2013-02-08 17:48:00,22.6,21.4,27.90,ESE,112,3.1,5.8,95,0.00,,---,0.00,VWS V14.01,2013-02-08 22:48:00,
2013-02-08 17:53:00,22.6,21.4,27.90,ESE,112,2.9,4.5,95,0.00,,---,0.00,VWS V14.01,2013-02-08 22:53:00,
2013-02-08 17:58:00,22.6,21.4,27.90,East,90,3.4,3.4,95,0.00,,---,0.00,VWS V14.01,2013-02-08 22:58:00,
2013-02-08 18:03:00,22.6,21.4,27.90,ENE,68,4.0,4.0,95,0.00,,---,0.00,VWS V14.01,2013-02-08 23:03:00,
2013-02-08 18:08:00,22.6,21.4,27.90,ESE,112,2.9,4.3,95,0.00,,---,0.00,VWS V14.01,2013-02-08 23:08:00,
2013-02-08 18:13:00,22.6,21.7,27.90,East,90,3.8,3.8,96,0.00,,---,0.00,VWS V14.01,2013-02-08 23:13:00,
2013-02-08 18:18:00,22.6,21.7,27.90,ENE,68,2.5,6.5,96,0.00,,---,0.00,VWS V14.01,2013-02-08 23:18:00,
2013-02-08 18:23:00,22.6,21.7,27.90,East,90,3.8,6.3,96,0.00,,---,0.00,VWS V14.01,2013-02-08 23:23:00,
2013-02-08 18:28:00,22.6,21.7,27.90,ENE,68,4.3,4.3,96,0.00,,---,0.00,VWS V14.01,2013-02-08 23:28:00,
2013-02-08 18:33:00,22.6,21.7,27.90,ENE,68,6.0,8.1,96,0.00,,---,0.00,VWS V14.01,2013-02-08 23:33:00,
2013-02-08 18:38:00,22.6,21.7,27.90,NNE,22,5.8,7.6,96,0.00,,---,0.00,VWS V14.01,2013-02-08 23:38:00,
2013-02-08 18:43:00,22.6,21.7,27.90,ENE,68,8.1,9.0,96,0.00,,---,0.00,VWS V14.01,2013-02-08 23:43:00,
2013-02-08 18:48:00,22.6,21.7,27.90,East,90,7.2,13.0,96,0.00,,---,0.00,VWS V14.01,2013-02-08 23:48:00,
2013-02-08 18:53:00,22.6,21.7,27.90,ENE,68,8.1,8.1,96,0.00,,---,0.00,VWS V14.01,2013-02-08 23:53:00,
2013-02-08 18:58:00,22.5,21.5,27.90,NE,45,8.7,8.7,96,0.00,,---,0.00,VWS V14.01,2013-02-08 23:58:00,
2013-02-08 19:03:00,22.5,21.5,27.90,ENE,68,9.8,9.8,96,0.00,,---,0.00,VWS V14.01,2013-02-09 00:03:00,
2013-02-08 19:08:00,22.3,21.3,27.88,ESE,112,6.0,10.1,96,0.00,,---,0.00,VWS V14.01,2013-02-09 00:08:00,
2013-02-08 19:13:00,22.3,21.1,27.88,ENE,68,8.5,8.5,95,0.00,,---,0.00,VWS V14.01,2013-02-09 00:13:00,
2013-02-08 19:18:00,22.1,20.9,27.88,ENE,68,7.2,9.0,95,0.00,,---,0.00,VWS V14.01,2013-02-09 00:18:00,
2013-02-08 19:23:00,21.9,20.7,27.88,ESE,112,8.1,8.5,95,0.00,,---,0.00,VWS V14.01,2013-02-09 00:23:00,
2013-02-08 19:28:00,21.9,20.7,27.88,ESE,112,10.5,10.5,95,0.00,,---,0.00,VWS V14.01,2013-02-09 00:28:00,
2013-02-08 19:33:00,21.7,20.8,27.88,ENE,68,10.7,10.7,96,0.00,,---,0.00,VWS V14.01,2013-02-09 00:33:00,
2013-02-08 19:38:00,21.7,20.8,27.88,ESE,112,4.0,7.4,96,0.00,,---,0.00,VWS V14.01,2013-02-09 00:38:00,
2013-02-08 19:43:00,21.7,20.8,27.88,ENE,68,7.6,8.7,96,0.00,,---,0.00,VWS V14.01,2013-02-09 00:43:00,
2013-02-08 19:48:00,21.7,20.8,27.88,NE,45,7.2,8.7,96,0.00,,---,0.00,VWS V14.01,2013-02-09 00:48:00,
2013-02-08 19:53:00,21.7,21.0,27.88,ENE,68,4.0,7.2,97,0.00,,---,0.00,VWS V14.01,2013-02-09 00:53:00,
2013-02-08 19:58:00,21.7,21.0,27.88,ENE,68,3.8,3.8,97,0.00,,---,0.00,VWS V14.01,2013-02-09 00:58:00,
2013-02-08 20:03:00,21.7,21.0,27.88,ENE,68,5.8,7.4,97,0.00,,---,0.00,VWS V14.01,2013-02-09 01:03:00,
2013-02-08 20:08:00,21.7,21.0,27.88,ESE,112,3.8,7.8,97,0.00,,---,0.00,VWS V14.01,2013-02-09 01:08:00,
2013-02-08 20:13:00,21.6,20.6,27.88,ENE,68,8.1,16.1,96,0.00,,---,0.00,VWS V14.01,2013-02-09 01:13:00,
2013-02-08 20:18:00,21.6,20.4,27.88,ENE,68,10.1,10.1,95,0.00,,---,0.00,VWS V14.01,2013-02-09 01:18:00,
2013-02-08 20:23:00,21.6,20.4,27.88,ENE,68,6.5,12.8,95,0.00,,---,0.00,VWS V14.01,2013-02-09 01:23:00,
2013-02-08 20:28:00,21.4,20.2,27.88,ESE,112,2.9,5.6,95,0.00,,---,0.00,VWS V14.01,2013-02-09 01:28:00,
2013-02-08 20:33:00,21.4,20.2,27.88,ENE,68,3.6,3.8,95,0.00,,---,0.00,VWS V14.01,2013-02-09 01:33:00,
2013-02-08 20:38:00,21.4,20.2,27.88,NNE,22,2.7,3.4,95,0.00,,---,0.00,VWS V14.01,2013-02-09 01:38:00,
2013-02-08 20:43:00,21.4,20.4,27.88,North,0,0.0,3.1,96,0.00,,---,0.00,VWS V14.01,2013-02-09 01:43:00,
2013-02-08 20:48:00,21.6,20.6,27.88,NNW,338,2.2,5.6,96,0.00,,---,0.00,VWS V14.01,2013-02-09 01:48:00,
2013-02-08 20:53:00,21.4,20.2,27.90,North,0,4.0,6.5,95,0.00,,---,0.00,VWS V14.01,2013-02-09 01:53:00,
2013-02-08 20:58:00,21.4,19.9,27.90,NNE,22,8.1,8.7,94,0.00,,---,0.00,VWS V14.01,2013-02-09 01:58:00,
2013-02-08 21:03:00,21.2,19.5,27.90,North,0,7.8,8.1,93,0.00,,---,0.00,VWS V14.01,2013-02-09 02:03:00,
2013-02-08 21:08:00,21.2,19.2,27.90,North,0,6.3,6.5,92,0.00,,---,0.00,VWS V14.01,2013-02-09 02:08:00,
2013-02-08 21:13:00,21.2,19.2,27.90,NNW,338,7.4,8.7,92,0.00,,---,0.00,VWS V14.01,2013-02-09 02:13:00,
2013-02-08 21:18:00,21.2,19.2,27.90,NNW,338,4.0,5.4,92,0.00,,---,0.00,VWS V14.01,2013-02-09 02:18:00,
2013-02-08 21:23:00,21.2,19.5,27.90,North,0,4.9,5.8,93,0.00,,---,0.00,VWS V14.01,2013-02-09 02:23:00,
2013-02-08 21:28:00,21.0,19.3,27.90,NNW,338,7.8,8.5,93,0.00,,---,0.00,VWS V14.01,2013-02-09 02:28:00,
2013-02-08 21:33:00,20.8,19.1,27.90,North,0,6.3,6.3,93,0.00,,---,0.00,VWS V14.01,2013-02-09 02:33:00,
2013-02-08 21:38:00,20.8,19.1,27.88,North,0,5.8,7.4,93,0.00,,---,0.00,VWS V14.01,2013-02-09 02:38:00,
2013-02-08 21:43:00,20.7,19.0,27.88,NNW,338,5.4,6.3,93,0.00,,---,0.00,VWS V14.01,2013-02-09 02:43:00,
2013-02-08 21:48:00,20.7,19.0,27.88,NNW,338,4.0,4.0,93,0.00,,---,0.00,VWS V14.01,2013-02-09 02:48:00,
2013-02-08 21:53:00,20.5,18.8,27.90,NNW,338,4.0,5.6,93,0.00,,---,0.00,VWS V14.01,2013-02-09 02:53:00,
2013-02-08 21:58:00,20.5,18.8,27.90,NNW,338,9.0,9.0,93,0.00,,---,0.00,VWS V14.01,2013-02-09 02:58:00,
2013-02-08 22:03:00,20.5,19.3,27.90,NNW,338,6.3,6.3,95,0.00,,---,0.00,VWS V14.01,2013-02-09 03:03:00,
2013-02-08 22:08:00,20.7,19.5,27.90,NNW,338,7.6,7.6,95,0.00,,---,0.00,VWS V14.01,2013-02-09 03:08:00,
2013-02-08 22:13:00,20.5,19.3,27.90,NNW,338,6.5,10.1,95,0.00,,---,0.00,VWS V14.01,2013-02-09 03:13:00,
2013-02-08 22:18:00,20.3,19.3,27.90,NNW,338,3.6,8.5,96,0.00,,---,0.00,VWS V14.01,2013-02-09 03:18:00,
2013-02-08 22:23:00,20.3,19.1,27.90,NNW,338,6.0,7.8,95,0.00,,---,0.00,VWS V14.01,2013-02-09 03:23:00,
2013-02-08 22:28:00,20.1,18.9,27.90,NNE,22,8.5,10.7,95,0.00,,---,0.00,VWS V14.01,2013-02-09 03:28:00,
2013-02-08 22:33:00,20.1,18.9,27.90,NNW,338,10.7,11.0,95,0.00,,---,0.00,VWS V14.01,2013-02-09 03:33:00,
2013-02-08 22:38:00,20.1,19.2,27.90,WNW,292,4.3,6.0,96,0.00,,---,0.00,VWS V14.01,2013-02-09 03:38:00,
2013-02-08 22:43:00,20.1,19.2,27.90,NNW,338,5.6,7.4,96,0.00,,---,0.00,VWS V14.01,2013-02-09 03:43:00,
2013-02-08 22:48:00,20.1,19.2,27.90,NNE,22,12.3,12.5,96,0.00,,---,0.00,VWS V14.01,2013-02-09 03:48:00,
2013-02-08 22:53:00,19.9,19.0,27.90,NNE,22,12.1,12.1,96,0.00,,---,0.00,VWS V14.01,2013-02-09 03:53:00,
2013-02-08 22:58:00,19.8,18.6,27.90,North,0,8.5,8.5,95,0.00,,---,0.00,VWS V14.01,2013-02-09 03:58:00,
2013-02-08 23:03:00,19.6,18.4,27.90,NNW,338,8.1,8.5,95,0.00,,---,0.00,VWS V14.01,2013-02-09 04:03:00,
2013-02-08 23:08:00,19.6,18.4,27.90,NNW,338,6.0,6.5,95,0.00,,---,0.00,VWS V14.01,2013-02-09 04:08:00,
2013-02-08 23:13:00,19.4,18.5,27.90,NNW,338,9.4,10.1,96,0.00,,---,0.00,VWS V14.01,2013-02-09 04:13:00,
2013-02-08 23:18:00,19.2,18.0,27.90,North,0,9.8,12.3,95,0.00,,---,0.00,VWS V14.01,2013-02-09 04:18:00,
2013-02-08 23:23:00,19.2,18.0,27.90,NNW,338,13.2,13.2,95,0.00,,---,0.00,VWS V14.01,2013-02-09 04:23:00,
2013-02-08 23:28:00,19.0,17.9,27.90,NNW,338,8.5,12.1,95,0.00,,---,0.00,VWS V14.01,2013-02-09 04:28:00,
2013-02-08 23:33:00,19.0,17.9,27.90,North,0,13.0,13.0,95,0.00,,---,0.00,VWS V14.01,2013-02-09 04:33:00,
2013-02-08 23:38:00,18.9,17.7,27.90,North,0,10.3,10.5,95,0.00,,---,0.00,VWS V14.01,2013-02-09 04:38:00,
2013-02-08 23:43:00,18.9,17.7,27.90,NNE,22,6.3,10.1,95,0.00,,---,0.00,VWS V14.01,2013-02-09 04:43:00,
2013-02-08 23:48:00,18.9,17.7,27.90,NNW,338,13.0,13.0,95,0.00,,---,0.00,VWS V14.01,2013-02-09 04:48:00,
2013-02-08 23:53:00,18.9,17.7,27.93,NNW,338,10.5,10.5,95,0.00,,---,0.00,VWS V14.01,2013-02-09 04:53:00,
2013-02-08 23:58:00,18.9,17.7,27.93,NNW,338,6.5,7.6,95,0.00,,---,0.00,VWS V14.01,2013-02-09 04:58:00,